createdAt,value
2022-11-18T00:00:56.697Z,5.19
2022-11-18T00:03:23.879Z,5.06
2022-11-18T00:05:57.559Z,5.15
2022-11-18T00:08:25.802Z,5.21
2022-11-18T00:10:54.043Z,5.26
2022-11-18T00:13:39.728Z,5.33
2022-11-18T00:16:11.226Z,5.39
2022-11-18T00:18:38.871Z,5.19
2022-11-18T00:21:08.613Z,5.40
2022-11-18T00:23:36.051Z,5.27
2022-11-18T00:26:11.313Z,5.33
2022-11-18T00:28:38.942Z,5.31
2022-11-18T00:31:14.798Z,5.21
2022-11-18T00:33:41.426Z,5.32
2022-11-18T00:36:10.522Z,5.11
2022-11-18T00:38:37.700Z,5.05
2022-11-18T00:41:13.150Z,5.25
2022-11-18T00:43:40.352Z,5.28
2022-11-18T00:46:09.678Z,5.20
2022-11-18T00:48:37.186Z,5.29
2022-11-18T00:51:18.934Z,5.20
2022-11-18T00:53:45.597Z,5.17
2022-11-18T00:56:12.205Z,5.19
2022-11-18T00:58:38.843Z,5.30
2022-11-18T01:01:05.786Z,5.29
2022-11-18T01:03:32.628Z,5.41
2022-11-18T01:05:59.241Z,5.10
2022-11-18T01:08:26.147Z,5.28
2022-11-18T01:10:53.588Z,5.16
2022-11-18T01:13:23.130Z,5.12
2022-11-18T01:15:55.468Z,5.24
2022-11-18T01:18:26.356Z,5.03
2022-11-18T01:20:53.162Z,5.27
2022-11-18T01:23:20.598Z,5.28
2022-11-18T01:25:49.334Z,5.18
2022-11-18T01:28:21.976Z,5.31
2022-11-18T01:30:50.132Z,5.19
2022-11-18T01:33:16.729Z,5.26
2022-11-18T01:35:44.008Z,5.29
2022-11-18T01:38:12.906Z,5.19
2022-11-18T01:40:40.157Z,5.18
2022-11-18T01:43:13.487Z,5.08
2022-11-18T01:45:42.582Z,5.29
2022-11-18T01:48:20.747Z,5.30
2022-11-18T01:51:02.011Z,5.10
2022-11-18T01:53:33.924Z,5.16
2022-11-18T01:56:08.546Z,5.21
2022-11-18T01:58:42.482Z,5.00
2022-11-18T02:01:09.529Z,5.22
2022-11-18T02:03:36.769Z,5.16
2022-11-18T02:06:05.303Z,5.23
2022-11-18T02:08:33.642Z,5.24
2022-11-18T02:11:00.206Z,5.16
2022-11-18T02:13:26.833Z,5.30
2022-11-18T02:16:05.565Z,5.29
2022-11-18T02:19:00.356Z,5.26
2022-11-18T02:21:34.136Z,5.27
2022-11-18T02:24:31.647Z,5.27
2022-11-18T02:27:21.368Z,5.32
2022-11-18T02:30:08.884Z,5.23
2022-11-18T02:32:43.437Z,5.33
2022-11-18T02:35:42.674Z,5.31
2022-11-18T02:38:13.450Z,5.30
2022-11-18T02:40:45.312Z,5.29
2022-11-18T02:43:19.764Z,5.28
2022-11-18T02:45:50.975Z,5.24
2022-11-18T02:48:20.724Z,5.29
2022-11-18T02:50:50.415Z,5.23
2022-11-18T02:53:19.885Z,5.37
2022-11-18T02:55:48.547Z,5.36
2022-11-18T02:58:17.878Z,5.37
2022-11-18T03:00:44.668Z,5.36
2022-11-18T03:03:37.703Z,5.38
2022-11-18T03:06:04.335Z,5.37
2022-11-18T03:08:38.137Z,5.38
2022-11-18T03:11:32.868Z,5.43
2022-11-18T03:14:24.754Z,5.49
2022-11-18T03:17:02.041Z,5.48
2022-11-18T03:19:44.366Z,5.39
2022-11-18T03:22:26.470Z,5.44
2022-11-18T03:25:04.254Z,5.27
2022-11-18T03:27:38.460Z,5.26
2022-11-18T03:30:10.406Z,5.44
2022-11-18T03:32:42.080Z,5.19
2022-11-18T03:35:14.437Z,5.43
2022-11-18T03:37:42.209Z,5.40
2022-11-18T03:40:21.460Z,5.36
2022-11-18T03:42:57.663Z,5.41
2022-11-18T03:45:34.793Z,5.52
2022-11-18T03:48:14.029Z,5.51
2022-11-18T03:50:48.036Z,5.31
2022-11-18T03:53:17.978Z,5.37
2022-11-18T03:55:50.719Z,5.41
2022-11-18T03:58:23.375Z,5.51
2022-11-18T04:00:57.963Z,5.50
2022-11-18T04:03:26.201Z,5.45
2022-11-18T04:06:05.178Z,5.41
2022-11-18T04:08:36.833Z,5.25
2022-11-18T04:11:33.839Z,5.41
2022-11-18T04:14:01.327Z,5.19
2022-11-18T04:16:27.987Z,5.10
2022-11-18T04:18:54.610Z,5.36
2022-11-18T04:21:21.277Z,5.27
2022-11-18T04:23:47.836Z,5.31
2022-11-18T04:26:14.480Z,5.47
2022-11-18T04:28:41.082Z,5.46
2022-11-18T04:31:07.842Z,5.41
2022-11-18T04:33:34.427Z,5.60
2022-11-18T04:36:01.084Z,5.48
2022-11-18T04:38:27.703Z,5.31
2022-11-18T04:40:54.286Z,5.62
2022-11-18T04:43:20.888Z,5.50
2022-11-18T04:45:47.487Z,5.76
2022-11-18T04:48:14.605Z,5.83
2022-11-18T04:50:41.271Z,5.54
2022-11-18T04:53:07.905Z,5.50
2022-11-18T04:55:37.902Z,5.46
2022-11-18T04:58:04.521Z,5.58
2022-11-18T05:00:31.151Z,5.23
2022-11-18T05:02:57.791Z,5.52
2022-11-18T05:05:24.465Z,5.53
2022-11-18T05:07:51.567Z,5.61
2022-11-18T05:10:18.204Z,5.60
2022-11-18T05:12:50.678Z,5.59
2022-11-18T05:15:21.505Z,5.58
2022-11-18T05:17:48.526Z,5.41
2022-11-18T05:20:15.633Z,5.72
2022-11-18T05:22:42.418Z,5.53
2022-11-18T05:25:09.551Z,5.68
2022-11-18T05:27:36.171Z,5.50
2022-11-18T05:30:03.076Z,5.51
2022-11-18T05:32:29.713Z,5.53
2022-11-18T05:34:56.282Z,5.64
2022-11-18T05:37:23.005Z,5.53
2022-11-18T05:39:49.613Z,5.71
2022-11-18T05:42:34.882Z,5.77
2022-11-18T05:45:01.523Z,5.68
2022-11-18T05:47:28.176Z,5.81
2022-11-18T05:49:54.836Z,5.68
2022-11-18T05:52:21.391Z,5.64
2022-11-18T05:54:51.144Z,5.86
2022-11-18T05:57:17.989Z,5.75
2022-11-18T05:59:44.693Z,5.51
2022-11-18T06:02:16.641Z,5.68
2022-11-18T06:04:59.931Z,5.47
2022-11-18T06:07:38.388Z,5.62
2022-11-18T06:10:06.365Z,5.54
2022-11-18T06:12:41.799Z,5.49
2022-11-18T06:15:20.366Z,5.63
2022-11-18T06:17:56.295Z,5.54
2022-11-18T06:20:23.828Z,5.70
2022-11-18T06:22:54.849Z,5.65
2022-11-18T06:25:22.276Z,5.68
2022-11-18T06:27:51.936Z,5.71
2022-11-18T06:30:18.656Z,5.67
2022-11-18T06:32:45.230Z,5.59
2022-11-18T06:35:11.913Z,5.54
2022-11-18T06:37:38.527Z,5.73
2022-11-18T06:40:05.606Z,5.75
2022-11-18T06:42:50.868Z,5.59
2022-11-18T06:45:17.522Z,5.69
2022-11-18T06:47:44.268Z,5.71
2022-11-18T06:50:11.345Z,5.58
2022-11-18T06:52:38.009Z,5.52
2022-11-18T06:55:08.033Z,5.58
2022-11-18T06:57:35.415Z,5.45
2022-11-18T07:00:02.708Z,5.62
2022-11-18T07:02:29.589Z,5.71
2022-11-18T07:04:56.200Z,5.52
2022-11-18T07:07:22.840Z,5.53
2022-11-18T07:09:49.520Z,5.57
2022-11-18T07:12:16.144Z,5.89
2022-11-18T07:14:42.807Z,5.91
2022-11-18T07:17:09.416Z,6.06
2022-11-18T07:19:36.244Z,6.15
2022-11-18T07:22:02.922Z,6.14
2022-11-18T07:24:30.431Z,6.15
2022-11-18T07:26:57.461Z,6.14
2022-11-18T07:29:24.209Z,6.10
2022-11-18T07:31:50.910Z,5.87
2022-11-18T07:34:17.742Z,5.88
2022-11-18T07:36:44.349Z,5.86
2022-11-18T07:39:11.063Z,6.25
2022-11-18T07:41:40.180Z,6.25
2022-11-18T07:44:07.464Z,6.03
2022-11-18T07:46:36.270Z,6.16
2022-11-18T07:49:05.714Z,6.16
2022-11-18T07:51:35.030Z,6.19
2022-11-18T07:54:05.444Z,6.21
2022-11-18T07:56:32.097Z,6.05
2022-11-18T07:58:58.671Z,6.06
2022-11-18T08:01:30.957Z,6.23
2022-11-18T08:03:58.865Z,6.19
2022-11-18T08:06:25.543Z,6.22
2022-11-18T08:08:52.544Z,6.21
2022-11-18T08:11:22.563Z,6.06
2022-11-18T08:13:50.244Z,6.19
2022-11-18T08:16:20.214Z,6.18
2022-11-18T08:18:47.254Z,6.05
2022-11-18T08:21:15.345Z,6.22
2022-11-18T08:23:42.821Z,5.91
2022-11-18T08:26:10.990Z,6.29
2022-11-18T08:28:37.997Z,6.13
2022-11-18T08:31:19.634Z,6.25
2022-11-18T08:33:46.614Z,6.16
2022-11-18T08:36:16.301Z,6.29
2022-11-18T08:38:42.908Z,6.11
2022-11-18T08:41:31.115Z,6.29
2022-11-18T08:43:57.862Z,6.24
2022-11-18T08:46:24.473Z,6.17
2022-11-18T08:48:51.185Z,6.09
2022-11-18T08:51:17.949Z,6.25
2022-11-18T08:53:44.826Z,6.13
2022-11-18T08:56:20.205Z,6.35
2022-11-18T08:58:47.071Z,6.25
2022-11-18T09:01:13.825Z,6.21
2022-11-18T09:03:41.071Z,6.37
2022-11-18T09:06:21.224Z,6.27
2022-11-18T09:08:47.905Z,6.40
2022-11-18T09:11:23.386Z,6.33
2022-11-18T09:16:42.743Z,6.40
2022-11-18T09:19:39.710Z,6.27
2022-11-18T09:21:55.942Z,6.03
2022-11-18T09:24:22.614Z,6.13
2022-11-18T09:26:50.005Z,6.06
2022-11-18T09:29:16.611Z,6.07
2022-11-18T09:31:43.314Z,6.02
2022-11-18T09:34:10.449Z,6.26
2022-11-18T09:36:37.942Z,6.40
2022-11-18T09:39:04.637Z,6.41
2022-11-18T09:42:00.710Z,6.64
2022-11-18T09:44:48.979Z,6.62
2022-11-18T09:47:31.898Z,6.66
2022-11-18T09:50:10.634Z,6.69
2022-11-18T09:53:14.267Z,6.64
2022-11-18T09:55:41.716Z,6.50
2022-11-18T09:58:18.205Z,6.76
2022-11-18T10:00:46.127Z,6.52
2022-11-18T10:03:33.617Z,6.68
2022-11-18T10:06:10.039Z,6.65
2022-11-18T10:08:45.868Z,6.64
2022-11-18T10:11:14.828Z,6.80
2022-11-18T10:13:47.497Z,6.69
2022-11-18T10:16:16.824Z,6.48
2022-11-18T10:19:00.380Z,6.77
2022-11-18T10:21:40.751Z,6.60
2022-11-18T10:24:16.664Z,6.88
2022-11-18T10:26:43.448Z,6.69
2022-11-18T10:29:11.037Z,6.95
2022-11-18T10:32:01.114Z,6.71
2022-11-18T10:34:32.369Z,6.83
2022-11-18T10:37:31.043Z,6.78
2022-11-18T10:40:06.562Z,6.65
2022-11-18T10:42:48.718Z,6.53
2022-11-18T10:45:21.505Z,6.67
2022-11-18T10:47:57.225Z,6.68
2022-11-18T10:50:36.571Z,6.72
2022-11-18T10:53:03.885Z,6.50
2022-11-18T10:55:31.535Z,6.01
2022-11-18T10:58:16.532Z,6.32
2022-11-18T11:00:47.308Z,6.43
2022-11-18T11:03:31.613Z,6.45
2022-11-18T11:06:23.593Z,6.39
2022-11-18T11:09:06.471Z,6.34
2022-11-18T11:11:37.769Z,6.34
2022-11-18T11:14:20.497Z,6.06
2022-11-18T11:16:59.054Z,6.00
2022-11-18T11:19:34.446Z,6.17
2022-11-18T11:22:01.189Z,6.15
2022-11-18T11:24:28.370Z,6.16
2022-11-18T11:29:59.607Z,6.18
2022-11-18T11:32:32.182Z,6.29
2022-11-18T11:35:22.057Z,6.08
2022-11-18T11:38:17.035Z,6.05
2022-11-18T11:41:07.025Z,6.21
2022-11-18T11:43:45.474Z,6.30
2022-11-18T11:46:43.135Z,6.30
2022-11-18T11:49:19.705Z,6.26
2022-11-18T11:51:54.639Z,6.34
2022-11-18T11:54:31.266Z,6.29
2022-11-18T11:57:33.435Z,6.35
2022-11-18T12:00:12.540Z,6.39
2022-11-18T12:02:51.238Z,6.32
2022-11-18T12:05:39.160Z,6.25
2022-11-18T12:08:24.527Z,6.50
2022-11-18T12:10:59.622Z,6.50
2022-11-18T12:13:54.074Z,6.63
2022-11-18T12:16:35.951Z,6.68
2022-11-18T12:19:11.162Z,6.74
2022-11-18T12:21:46.869Z,6.70
2022-11-18T12:24:32.983Z,6.58
2022-11-18T12:27:12.453Z,6.80
2022-11-18T12:29:51.231Z,6.78
2022-11-18T12:32:23.874Z,6.71
2022-11-18T12:35:00.889Z,6.55
2022-11-18T12:37:27.480Z,6.63
2022-11-18T12:40:00.125Z,6.63
2022-11-18T12:43:03.058Z,6.57
2022-11-18T12:45:42.143Z,6.78
2022-11-18T12:48:27.405Z,6.77
2022-11-18T12:50:56.487Z,6.73
2022-11-18T12:53:39.874Z,6.78
2022-11-18T12:56:22.599Z,6.73
2022-11-18T12:58:52.194Z,6.59
2022-11-18T13:01:24.112Z,6.54
2022-11-18T13:03:52.256Z,6.64
2022-11-18T13:06:26.201Z,6.56
2022-11-18T13:08:57.888Z,6.56
2022-11-18T13:11:44.655Z,6.59
2022-11-18T13:14:37.431Z,6.39
2022-11-18T13:17:54.922Z,6.31
2022-11-18T13:20:24.530Z,6.51
2022-11-18T13:23:15.994Z,6.47
2022-11-18T13:25:47.040Z,6.58
2022-11-18T13:28:54.587Z,6.31
2022-11-18T13:31:53.016Z,6.59
2022-11-18T13:34:26.084Z,6.47
2022-11-18T13:36:55.008Z,6.46
2022-11-18T13:39:23.643Z,6.39
2022-11-18T13:42:14.633Z,6.66
2022-11-18T13:45:13.847Z,6.61
2022-11-18T13:47:52.595Z,6.44
2022-11-18T13:50:40.914Z,6.51
2022-11-18T13:53:37.227Z,6.49
2022-11-18T13:56:22.178Z,6.13
2022-11-18T13:59:17.415Z,6.26
2022-11-18T14:01:44.493Z,6.16
2022-11-18T14:04:25.495Z,6.29
2022-11-18T14:06:52.372Z,5.92
2022-11-18T14:09:22.101Z,5.90
2022-11-18T14:12:15.073Z,5.63
2022-11-18T14:14:44.485Z,5.80
2022-11-18T14:17:28.901Z,5.65
2022-11-18T14:19:58.355Z,5.43
2022-11-18T14:22:27.854Z,5.49
2022-11-18T14:25:04.022Z,5.66
2022-11-18T14:27:43.411Z,5.52
2022-11-18T14:30:31.823Z,5.66
2022-11-18T14:33:24.338Z,5.81
2022-11-18T14:35:54.769Z,5.77
2022-11-18T14:38:52.423Z,5.84
2022-11-18T14:41:15.046Z,5.75
2022-11-18T14:43:46.068Z,5.71
2022-11-18T14:46:17.089Z,5.64
2022-11-18T14:48:44.656Z,5.58
2022-11-18T14:51:15.827Z,5.40
2022-11-18T14:53:44.133Z,5.30
2022-11-18T14:56:27.443Z,5.52
2022-11-18T14:58:54.305Z,5.52
2022-11-18T15:01:29.144Z,5.53
2022-11-18T15:03:56.993Z,5.43
2022-11-18T15:06:24.671Z,5.50
2022-11-18T15:08:52.960Z,5.50
2022-11-18T15:11:20.185Z,5.61
2022-11-18T15:13:47.041Z,5.72
2022-11-18T15:16:19.804Z,5.55
2022-11-18T15:18:50.770Z,5.59
2022-11-18T15:21:17.463Z,5.41
2022-11-18T15:23:44.216Z,5.21
2022-11-18T15:26:41.475Z,5.39
2022-11-18T15:29:16.680Z,5.30
2022-11-18T15:31:43.329Z,5.17
2022-11-18T15:34:09.975Z,5.22
2022-11-18T15:36:36.629Z,5.18
2022-11-18T15:39:03.685Z,4.93
2022-11-18T15:41:31.346Z,4.94
2022-11-18T15:43:59.811Z,4.87
2022-11-18T15:46:30.028Z,4.83
2022-11-18T15:48:58.325Z,4.75
2022-11-18T15:51:26.716Z,4.72
2022-11-18T15:53:53.656Z,4.42
2022-11-18T15:56:23.374Z,4.62
2022-11-18T15:58:58.709Z,4.59
2022-11-18T16:01:27.710Z,4.54
2022-11-18T16:03:54.712Z,4.41
2022-11-18T16:06:22.351Z,4.32
2022-11-18T16:08:50.373Z,4.19
2022-11-18T16:11:38.285Z,4.13
2022-11-18T16:14:07.150Z,4.31
2022-11-18T16:16:35.068Z,4.06
2022-11-18T16:19:04.758Z,4.02
2022-11-18T16:21:37.134Z,4.09
2022-11-18T16:24:06.331Z,4.09
2022-11-18T16:26:34.316Z,4.12
2022-11-18T16:29:01.563Z,4.12
2022-11-18T16:31:40.242Z,3.86
2022-11-18T16:34:10.374Z,4.00
2022-11-18T16:36:38.576Z,4.07
2022-11-18T16:39:13.585Z,3.85
2022-11-18T16:41:41.169Z,3.79
2022-11-18T16:44:11.899Z,3.93
2022-11-18T16:46:40.955Z,3.95
2022-11-18T16:49:12.003Z,3.83
2022-11-18T16:51:40.050Z,3.85
2022-11-18T16:54:09.540Z,3.72
2022-11-18T16:56:36.209Z,3.67
2022-11-18T16:59:10.977Z,3.63
2022-11-18T17:01:37.608Z,3.49
2022-11-18T17:04:04.447Z,3.14
2022-11-18T17:06:32.034Z,3.16
2022-11-18T17:08:59.561Z,2.99
2022-11-18T17:11:26.613Z,3.03
2022-11-18T17:13:57.717Z,2.84
2022-11-18T17:16:26.228Z,2.96
2022-11-18T17:18:58.904Z,3.02
2022-11-18T17:21:27.485Z,3.03
2022-11-18T17:23:54.540Z,3.04
2022-11-18T17:26:27.504Z,2.72
2022-11-18T17:28:57.212Z,2.99
2022-11-18T17:31:24.673Z,2.64
2022-11-18T17:33:53.617Z,2.62
2022-11-18T17:36:22.410Z,2.93
2022-11-18T17:38:50.975Z,2.43
2022-11-18T17:41:38.762Z,2.57
2022-11-18T17:44:07.930Z,2.75
2022-11-18T17:46:38.011Z,2.74
2022-11-18T17:49:10.056Z,2.61
2022-11-18T17:51:36.907Z,2.66
2022-11-18T17:54:03.593Z,2.63
2022-11-18T17:56:30.237Z,2.51
2022-11-18T17:58:56.934Z,2.48
2022-11-18T18:01:24.004Z,2.62
2022-11-18T18:03:50.920Z,2.62
2022-11-18T18:06:19.029Z,2.78
2022-11-18T18:08:45.708Z,2.83
2022-11-18T18:11:19.304Z,2.80
2022-11-18T18:14:05.077Z,2.86
2022-11-18T18:16:33.446Z,2.63
2022-11-18T18:19:01.531Z,2.76
2022-11-18T18:21:28.467Z,2.79
2022-11-18T18:23:55.075Z,2.66
2022-11-18T18:26:25.357Z,2.54
2022-11-18T18:28:55.289Z,2.34
2022-11-18T18:31:21.930Z,2.53
2022-11-18T18:33:48.634Z,2.64
2022-11-18T18:36:18.109Z,2.80
2022-11-18T18:38:45.351Z,2.78
2022-11-18T18:41:17.264Z,2.45
2022-11-18T18:43:44.485Z,2.54
2022-11-18T18:46:30.992Z,2.50
2022-11-18T18:49:20.304Z,2.59
2022-11-18T18:51:51.204Z,2.51
2022-11-18T18:54:19.967Z,2.21
2022-11-18T18:56:46.914Z,2.05
2022-11-18T18:59:13.603Z,2.25
2022-11-18T19:01:40.869Z,2.05
2022-11-18T19:04:10.471Z,2.33
2022-11-18T19:06:59.024Z,2.30
2022-11-18T19:09:26.174Z,2.15
2022-11-18T19:12:12.331Z,1.87
2022-11-18T19:14:39.626Z,2.04
2022-11-18T19:17:10.716Z,1.71
2022-11-18T19:19:58.453Z,1.86
2022-11-18T19:22:26.015Z,1.78
2022-11-18T19:24:53.654Z,1.72
2022-11-18T19:27:21.618Z,1.73
2022-11-18T19:29:48.241Z,1.60
2022-11-18T19:32:15.468Z,1.77
2022-11-18T19:34:42.248Z,1.63
2022-11-18T19:37:08.841Z,1.48
2022-11-18T19:39:35.517Z,1.70
2022-11-18T19:42:02.369Z,1.57
2022-11-18T19:44:29.225Z,1.70
2022-11-18T19:46:55.800Z,1.57
2022-11-18T19:49:22.921Z,1.37
2022-11-18T19:51:49.720Z,1.22
2022-11-18T19:54:16.307Z,1.11
2022-11-18T19:56:43.083Z,1.05
2022-11-18T19:59:12.437Z,0.56
2022-11-18T20:01:39.173Z,1.36
2022-11-18T20:04:05.908Z,1.07
2022-11-18T20:06:34.782Z,0.82
2022-11-18T20:09:02.670Z,0.93
2022-11-18T20:11:29.531Z,1.00
2022-11-18T20:13:56.207Z,0.27
2022-11-18T20:16:25.366Z,0.95
2022-11-18T20:18:57.712Z,0.99
2022-11-18T20:21:26.076Z,1.04
2022-11-18T20:24:01.551Z,0.73
2022-11-18T20:26:31.433Z,0.73
2022-11-18T20:28:58.079Z,0.17
2022-11-18T20:31:26.346Z,0.58
2022-11-18T20:33:54.652Z,0.39
2022-11-18T20:36:26.968Z,0.34
2022-11-18T20:38:56.234Z,0.43
2022-11-18T20:41:24.118Z,0.37
2022-11-18T20:43:51.259Z,0.29
2022-11-18T20:46:21.351Z,0.34
2022-11-18T20:48:49.571Z,0.21
2022-11-18T20:51:17.748Z,0.12
2022-11-18T20:53:44.693Z,0.20
2022-11-18T20:56:17.729Z,0.05
2022-11-18T20:58:45.140Z,0.23
2022-11-18T21:01:17.629Z,-0.13
2022-11-18T21:03:55.132Z,-0.17
2022-11-18T21:06:27.364Z,-0.31
2022-11-18T21:08:55.889Z,-0.20
2022-11-18T21:11:22.600Z,-0.45
2022-11-18T21:14:07.930Z,-0.15
2022-11-18T21:16:34.723Z,-0.10
2022-11-18T21:19:01.392Z,-0.01
2022-11-18T21:21:46.254Z,-0.18
2022-11-18T21:24:15.109Z,0.11
2022-11-18T21:26:42.434Z,-0.14
2022-11-18T21:29:11.077Z,-0.03
2022-11-18T21:31:37.995Z,0.01
2022-11-18T21:34:06.102Z,0.10
2022-11-18T21:36:33.582Z,-0.26
2022-11-18T21:39:03.828Z,-0.02
2022-11-18T21:41:30.938Z,-0.28
2022-11-18T21:44:05.463Z,-0.09
2022-11-18T21:46:34.797Z,-0.09
2022-11-18T21:49:02.481Z,-0.15
2022-11-18T21:51:32.126Z,-0.39
2022-11-18T21:54:00.283Z,-0.19
2022-11-18T21:56:30.578Z,-0.33
2022-11-18T21:58:59.001Z,-0.28
2022-11-18T22:01:29.715Z,-0.10
2022-11-18T22:03:58.856Z,-0.03
2022-11-18T22:06:27.167Z,-0.07
2022-11-18T22:08:53.793Z,-0.05
2022-11-18T22:11:22.397Z,-0.06
2022-11-18T22:13:51.213Z,0.10
2022-11-18T22:16:19.829Z,0.15
2022-11-18T22:18:54.803Z,-0.09
2022-11-18T22:21:23.856Z,0.10
2022-11-18T22:23:50.531Z,0.09
2022-11-18T22:26:19.462Z,0.08
2022-11-18T22:28:47.473Z,0.23
2022-11-18T22:31:20.525Z,0.09
2022-11-18T22:33:48.208Z,-0.25
2022-11-18T22:36:16.816Z,0.03
2022-11-18T22:38:47.155Z,-0.04
2022-11-18T22:41:40.527Z,-0.20
2022-11-18T22:44:14.736Z,-0.01
2022-11-18T22:46:43.516Z,-0.34
2022-11-18T22:49:11.397Z,-0.30
2022-11-18T22:51:39.283Z,-0.30
2022-11-18T22:56:54.238Z,-0.31
2022-11-18T22:59:21.363Z,-0.10
2022-11-18T23:01:50.646Z,0.05
2022-11-18T23:04:17.328Z,-0.44
2022-11-18T23:06:44.052Z,-0.21
2022-11-18T23:09:10.820Z,-0.31
2022-11-18T23:11:56.109Z,-0.42
2022-11-18T23:14:22.863Z,-0.43
2022-11-18T23:16:49.605Z,-0.60
2022-11-18T23:19:17.593Z,-0.31
2022-11-18T23:21:45.093Z,-0.43
2022-11-18T23:24:13.980Z,-0.34
2022-11-18T23:26:42.027Z,-0.24
2022-11-18T23:29:10.351Z,-0.18
2022-11-18T23:31:37.034Z,-0.10
2022-11-18T23:34:03.721Z,-0.31
2022-11-18T23:36:30.477Z,-0.05
2022-11-18T23:38:57.193Z,-0.21
2022-11-18T23:41:24.070Z,-0.16
2022-11-18T23:43:52.079Z,-0.19
2022-11-18T23:46:19.676Z,-0.27
2022-11-18T23:48:47.438Z,-0.34
2022-11-18T23:51:20.552Z,-0.09
2022-11-18T23:53:51.016Z,-0.08
2022-11-18T23:56:19.330Z,-0.08
2022-11-18T23:58:48.595Z,-0.17
